地図

経路データ

SID SEASON NUMBER BASIN SUBBASIN NAME ISO_TIME NATURE LAT LON WMO_WIND WMO_PRES WMO_AGENCY TRACK_TYPE DIST2LAND LANDFALL IFLAG USA_AGENCY USA_ATCF_ID USA_LAT USA_LON USA_RECORD USA_STATUS USA_WIND USA_PRES USA_SSHS USA_R34_NE USA_R34_SE USA_R34_SW USA_R34_NW USA_R50_NE USA_R50_SE USA_R50_SW USA_R50_NW USA_R64_NE USA_R64_SE USA_R64_SW USA_R64_NW USA_POCI USA_ROCI USA_RMW USA_EYE TOKYO_LAT TOKYO_LON TOKYO_GRADE TOKYO_WIND TOKYO_PRES TOKYO_R50_DIR TOKYO_R50_LONG TOKYO_R50_SHORT TOKYO_R30_DIR TOKYO_R30_LONG TOKYO_R30_SHORT TOKYO_LAND CMA_LAT CMA_LON CMA_CAT CMA_WIND CMA_PRES HKO_LAT HKO_LON HKO_CAT HKO_WIND HKO_PRES NEWDELHI_LAT NEWDELHI_LON NEWDELHI_GRADE NEWDELHI_WIND NEWDELHI_PRES NEWDELHI_CI NEWDELHI_DP NEWDELHI_POCI REUNION_LAT REUNION_LON REUNION_TYPE REUNION_WIND REUNION_PRES REUNION_TNUM REUNION_CI REUNION_RMW REUNION_R34_NE REUNION_R34_SE REUNION_R34_SW REUNION_R34_NW REUNION_R50_NE REUNION_R50_SE REUNION_R50_SW REUNION_R50_NW REUNION_R64_NE REUNION_R64_SE REUNION_R64_SW REUNION_R64_NW BOM_LAT BOM_LON BOM_TYPE BOM_WIND BOM_PRES BOM_TNUM BOM_CI BOM_RMW BOM_R34_NE BOM_R34_SE BOM_R34_SW BOM_R34_NW BOM_R50_NE BOM_R50_SE BOM_R50_SW BOM_R50_NW BOM_R64_NE BOM_R64_SE BOM_R64_SW BOM_R64_NW BOM_ROCI BOM_POCI BOM_EYE BOM_POS_METHOD BOM_PRES_METHOD NADI_LAT NADI_LON NADI_CAT NADI_WIND NADI_PRES WELLINGTON_LAT WELLINGTON_LON WELLINGTON_WIND WELLINGTON_PRES DS824_LAT DS824_LON DS824_STAGE DS824_WIND DS824_PRES TD9636_LAT TD9636_LON TD9636_STAGE TD9636_WIND TD9636_PRES TD9635_LAT TD9635_LON TD9635_WIND TD9635_PRES TD9635_ROCI NEUMANN_LAT NEUMANN_LON NEUMANN_CLASS NEUMANN_WIND NEUMANN_PRES MLC_LAT MLC_LON MLC_CLASS MLC_WIND MLC_PRES USA_GUST BOM_GUST BOM_GUST_PER REUNION_GUST REUNION_GUST_PER USA_SEAHGT USA_SEARAD_NE USA_SEARAD_SE USA_SEARAD_SW USA_SEARAD_NW STORM_SPEED STORM_DIR
1911217N31274 1911 48 NA NA NOT_NAMED 1911-08-04 12:00:00 TS 31.0000 -86.0000 20 hurdat_atl main 0 0 O_____________ hurdat_atl AL011911 31.0000 -86.0000 TD 20 -1 10 84
1911217N31274 1911 48 NA NA NOT_NAMED 1911-08-04 15:00:00 TS 31.0506 -85.3901 main 0 0 P_____________ AL011911 31.0506 -85.3901 TD 20 -1 10 84
1911217N31274 1911 48 NA NA NOT_NAMED 1911-08-04 18:00:00 TS 31.1000 -84.8000 20 hurdat_atl main 0 0 O_____________ hurdat_atl AL011911 31.1000 -84.8000 TD 20 -1 10 84
1911217N31274 1911 48 NA NA NOT_NAMED 1911-08-04 21:00:00 TS 31.1497 -84.2424 main 0 0 P_____________ AL011911 31.1497 -84.2424 TD 20 -1 9 84
1911217N31274 1911 48 NA NA NOT_NAMED 1911-08-05 00:00:00 TS 31.2000 -83.7000 20 hurdat_atl main 0 0 O_____________ hurdat_atl AL011911 31.2000 -83.7000 TD 20 -1 9 84
1911217N31274 1911 48 NA NA NOT_NAMED 1911-08-05 03:00:00 TS 31.2423 -83.1498 main 0 0 P_____________ AL011911 31.2423 -83.1498 TD 20 -1 9 84
1911217N31274 1911 48 NA NA NOT_NAMED 1911-08-05 06:00:00 TS 31.3000 -82.6000 20 hurdat_atl main 0 0 O_____________ hurdat_atl AL011911 31.3000 -82.6000 TD 20 -1 10 81
1911217N31274 1911 48 NA NA NOT_NAMED 1911-08-05 09:00:00 TS 31.3924 -82.0425 main 0 0 P_____________ AL011911 31.3924 -82.0425 TD 22 -1 10 78
1911217N31274 1911 48 NA NA NOT_NAMED 1911-08-05 12:00:00 TS 31.5000 -81.5000 25 hurdat_atl main 0 0 O_____________ hurdat_atl AL011911 31.5000 -81.5000 TD 25 -1 9 76
1911217N31274 1911 48 NA NA NOT_NAMED 1911-08-05 15:00:00 TS 31.6072 -80.9925 main 18 18 P_____________ AL011911 31.6072 -80.9925 TD 25 -1 9 77
1911217N31274 1911 48 NA NA NOT_NAMED 1911-08-05 18:00:00 TS 31.7000 -80.5000 25 hurdat_atl main 43 43 O_____________ hurdat_atl AL011911 31.7000 -80.5000 TD 25 -1 9 80
1911217N31274 1911 48 NA NA NOT_NAMED 1911-08-05 21:00:00 TS 31.7573 -79.9998 main 79 79 P_____________ AL011911 31.7573 -79.9998 TD 25 -1 9 83
1911217N31274 1911 48 NA NA NOT_NAMED 1911-08-06 00:00:00 TS 31.8000 -79.5000 25 hurdat_atl main 100 100 O_____________ hurdat_atl AL011911 31.8000 -79.5000 TD 25 -1 9 84
1911217N31274 1911 48 NA NA NOT_NAMED 1911-08-06 03:00:00 TS 31.8498 -78.9999 main 129 122 P_____________ AL011911 31.8498 -78.9999 TD 25 -1 9 83
1911217N31274 1911 48 NA NA NOT_NAMED 1911-08-06 06:00:00 TS 31.9000 -78.5000 25 hurdat_atl main 148 148 O_____________ hurdat_atl AL011911 31.9000 -78.5000 TD 25 -1 8 83
1911217N31274 1911 48 NA NA NOT_NAMED 1911-08-06 09:00:00 TS 31.9572 -78.0076 main 172 172 P_____________ AL011911 31.9572 -78.0076 TD 25 -1 9 83
1911217N31274 1911 48 NA NA NOT_NAMED 1911-08-06 12:00:00 TS 32.0000 -77.5000 25 hurdat_atl main 207 207 O_____________ hurdat_atl AL011911 32.0000 -77.5000 TD 25 -1 9 87
1911217N31274 1911 48 NA NA NOT_NAMED 1911-08-06 15:00:00 TS 32.0074 -76.9574 main 231 231 P_____________ AL011911 32.0074 -76.9574 TD 25 -1 9 90
1911217N31274 1911 48 NA NA NOT_NAMED 1911-08-06 18:00:00 TS 32.0000 -76.4000 25 hurdat_atl main 259 259 O_____________ hurdat_atl AL011911 32.0000 -76.4000 TD 25 -1 9 90
1911217N31274 1911 48 NA NA NOT_NAMED 1911-08-06 21:00:00 TS 31.9998 -75.8500 main 294 288 P_____________ AL011911 31.9998 -75.8500 TD 27 -1 9 90
1911217N31274 1911 48 NA NA NOT_NAMED 1911-08-07 00:00:00 TS 32.0000 -75.3000 30 hurdat_atl main 320 320 O_____________ hurdat_atl AL011911 32.0000 -75.3000 TD 30 -1 9 90
1911217N31274 1911 48 NA NA NOT_NAMED 1911-08-07 03:00:00 TS 31.9997 -74.7575 main 339 339 P_____________ AL011911 31.9997 -74.7575 TD 30 -1 9 90
1911217N31274 1911 48 NA NA NOT_NAMED 1911-08-07 06:00:00 TS 32.0000 -74.2000 30 hurdat_atl main 368 368 O_____________ hurdat_atl AL011911 32.0000 -74.2000 TD 30 -1 10 90
1911217N31274 1911 48 NA NA NOT_NAMED 1911-08-07 09:00:00 TS 31.9999 -73.6000 main 403 403 P_____________ AL011911 31.9999 -73.6000 TD 30 -1 10 90
1911217N31274 1911 48 NA NA NOT_NAMED 1911-08-07 12:00:00 TS 32.0000 -73.0000 30 hurdat_atl main 442 442 O_____________ hurdat_atl AL011911 32.0000 -73.0000 TD 30 -1 10 90
1911217N31274 1911 48 NA NA NOT_NAMED 1911-08-07 15:00:00 TS 31.9997 -72.4425 main 484 484 P_____________ AL011911 31.9997 -72.4425 TD 30 -1 9 90
1911217N31274 1911 48 NA NA NOT_NAMED 1911-08-07 18:00:00 TS 32.0000 -71.9000 30 hurdat_atl main 520 520 O_____________ hurdat_atl AL011911 32.0000 -71.9000 TD 30 -1 9 90
1911217N31274 1911 48 NA NA NOT_NAMED 1911-08-07 21:00:00 TS 31.9998 -71.3500 main 564 557 P_____________ AL011911 31.9998 -71.3500 TD 30 -1 9 90
1911217N31274 1911 48 NA NA NOT_NAMED 1911-08-08 00:00:00 TS 32.0000 -70.8000 30 hurdat_atl main 603 603 O_____________ hurdat_atl AL011911 32.0000 -70.8000 TD 30 -1 9 90
1911217N31274 1911 48 NA NA NOT_NAMED 1911-08-08 03:00:00 TS 31.9997 -70.2575 main 639 639 P_____________ AL011911 31.9997 -70.2575 TD 30 -1 9 90
1911217N31274 1911 48 NA NA NOT_NAMED 1911-08-08 06:00:00 TS 32.0000 -69.7000 30 hurdat_atl main 681 681 O_____________ hurdat_atl AL011911 32.0000 -69.7000 TD 30 -1 10 91
1911217N31274 1911 48 NA NA NOT_NAMED 1911-08-08 09:00:00 TS 31.9772 -69.1145 main 725 725 P_____________ AL011911 31.9772 -69.1145 TD 30 -1 10 90
1911217N31274 1911 48 NA NA NOT_NAMED 1911-08-08 12:00:00 TS 32.0000 -68.5000 30 hurdat_atl main 771 771 O_____________ hurdat_atl AL011911 32.0000 -68.5000 TD 30 -1 11 83
1911217N31274 1911 48 NA NA NOT_NAMED 1911-08-08 15:00:00 TS 32.1124 -67.8500 main 819 819 P_____________ AL011911 32.1124 -67.8500 TD 30 -1 11 75
1911217N31274 1911 48 NA NA NOT_NAMED 1911-08-08 18:00:00 TS 32.3000 -67.2000 30 hurdat_atl main 856 856 O_____________ hurdat_atl AL011911 32.3000 -67.2000 TD 30 -1 11 69
1911217N31274 1911 48 NA NA NOT_NAMED 1911-08-08 21:00:00 TS 32.5270 -66.5997 main 895 895 P_____________ AL011911 32.5270 -66.5997 TD 32 -1 11 64
1911217N31274 1911 48 NA NA NOT_NAMED 1911-08-09 00:00:00 TS 32.8000 -66.0000 35 hurdat_atl main 932 932 O_____________ hurdat_atl AL011911 32.8000 -66.0000 TS 35 0 12 62
1911217N31274 1911 48 NA NA NOT_NAMED 1911-08-09 03:00:00 TS 33.0924 -65.3499 main 980 980 P_____________ AL011911 33.0924 -65.3499 TS 35 0 12 61
1911217N31274 1911 48 NA NA NOT_NAMED 1911-08-09 06:00:00 TS 33.4000 -64.7000 35 hurdat_atl main 1021 1021 O_____________ hurdat_atl AL011911 33.4000 -64.7000 TS 35 0 12 60
1911217N31274 1911 48 NA NA NOT_NAMED 1911-08-09 09:00:00 TS 33.6996 -64.0920 main 1029 1023 P_____________ AL011911 33.6996 -64.0920 TS 35 0 12 59
1911217N31274 1911 48 NA NA NOT_NAMED 1911-08-09 12:00:00 TS 34.0000 -63.5000 35 hurdat_atl main 1028 1023 O_____________ hurdat_atl AL011911 34.0000 -63.5000 TS 35 0 12 59
1911217N31274 1911 48 NA NA NOT_NAMED 1911-08-09 15:00:00 TS 34.2997 -62.8996 main 1030 1021 P_____________ AL011911 34.2997 -62.8996 TS 35 0 12 59
1911217N31274 1911 48 NA NA NOT_NAMED 1911-08-09 18:00:00 TS 34.6000 -62.3000 35 hurdat_atl main 1023 1003 O_____________ hurdat_atl AL011911 34.6000 -62.3000 TS 35 0 12 59
1911217N31274 1911 48 NA NA NOT_NAMED 1911-08-09 21:00:00 TS 34.8997 -61.6996 main 1005 988 P_____________ AL011911 34.8997 -61.6996 TS 37 0 12 59
1911217N31274 1911 48 NA NA NOT_NAMED 1911-08-10 00:00:00 TS 35.2000 -61.1000 40 hurdat_atl main 991 976 O_____________ hurdat_atl AL011911 35.2000 -61.1000 TS 40 0 11 59
1911217N31274 1911 48 NA NA NOT_NAMED 1911-08-10 03:00:00 TS 35.4920 -60.5142 main 980 968 P_____________ AL011911 35.4920 -60.5142 TS 42 0 11 58
1911217N31274 1911 48 NA NA NOT_NAMED 1911-08-10 06:00:00 TS 35.8000 -59.9000 45 hurdat_atl main 972 964 O_____________ hurdat_atl AL011911 35.8000 -59.9000 TS 45 0 12 59
1911217N31274 1911 48 NA NA NOT_NAMED 1911-08-10 09:00:00 TS 36.1269 -59.2364 main 973 963 P_____________ AL011911 36.1269 -59.2364 TS 47 0 13 58
1911217N31274 1911 48 NA NA NOT_NAMED 1911-08-10 12:00:00 TS 36.5000 -58.5000 50 hurdat_atl main 968 962 O_____________ hurdat_atl AL011911 36.5000 -58.5000 TS 50 0 15 57
1911217N31274 1911 48 NA NA NOT_NAMED 1911-08-10 15:00:00 TS 36.9265 -57.7088 main 965 935 P_____________ AL011911 36.9265 -57.7088 TS 50 0 16 56
1911217N31274 1911 48 NA NA NOT_NAMED 1911-08-10 18:00:00 TS 37.4000 -56.8000 50 hurdat_atl main 938 922 O_____________ hurdat_atl AL011911 37.4000 -56.8000 TS 50 0 18 58
1911217N31274 1911 48 NA NA NOT_NAMED 1911-08-10 21:00:00 TS 37.8841 -55.7659 main 922 916 P_____________ AL011911 37.8841 -55.7659 TS 50 0 20 60
1911217N31274 1911 48 NA NA NOT_NAMED 1911-08-11 00:00:00 TS 38.4000 -54.6000 50 hurdat_atl main 915 856 O_____________ hurdat_atl AL011911 38.4000 -54.6000 TS 50 0 21 61
1911217N31274 1911 48 NA NA NOT_NAMED 1911-08-11 03:00:00 TS 38.9110 -53.3563 main 856 794 P_____________ AL011911 38.9110 -53.3563 TS 47 0 23 61
1911217N31274 1911 48 NA NA NOT_NAMED 1911-08-11 06:00:00 TS 39.5000 -52.0000 45 hurdat_atl main 795 741 O_____________ hurdat_atl AL011911 39.5000 -52.0000 TS 45 0 25 59
1911217N31274 1911 48 NA NA NOT_NAMED 1911-08-11 09:00:00 TS 40.2193 -50.5293 main 743 703 P_____________ AL011911 40.2193 -50.5293 TS 42 0 27 57
1911217N31274 1911 48 NA NA NOT_NAMED 1911-08-11 12:00:00 TS 41.0000 -49.0000 40 hurdat_atl main 707 697 O_____________ hurdat_atl AL011911 41.0000 -49.0000 TS 40 0 27 56
1911217N31274 1911 48 NA NA NOT_NAMED 1911-08-11 15:00:00 TS 41.7481 -47.4965 main 708 703 P_____________ AL011911 41.7481 -47.4965 TS 37 0 27 56
1911217N31274 1911 48 NA NA NOT_NAMED 1911-08-11 18:00:00 TS 42.5000 -46.0000 35 hurdat_atl main 727 727 O_____________ hurdat_atl AL011911 42.5000 -46.0000 TS 35 0 27 56
1911217N31274 1911 48 NA NA NOT_NAMED 1911-08-11 21:00:00 TS 43.2538 -44.5075 main 769 769 P_____________ AL011911 43.2538 -44.5075 TS 32 -1 26 56
1911217N31274 1911 48 NA NA NOT_NAMED 1911-08-12 00:00:00 TS 44.0000 -43.0000 30 hurdat_atl main 836 O_____________ hurdat_atl AL011911 44.0000 -43.0000 TD 30 -1 26 55

IBTrACS Databaseについて

本データベースは、米国NOAAが公開する1842年以降の世界の熱帯低気圧のベストトラックデータアーカイブInternational Best Track Archive for Climate Stewardship (IBTrACS)を、ウェブで閲覧しやすい形式に変換したものです。

最終更新日:2021-10-27